sensor_id;sensor_type;location;lat;lon;timestamp;temperature;humidity
40077;DHT22;25777;47.824;18.982;2023-03-20T00:00:47;5.70;99.90
40077;DHT22;25777;47.824;18.982;2023-03-20T00:03:26;5.60;99.90
40077;DHT22;25777;47.824;18.982;2023-03-20T00:05:52;5.50;99.90
40077;DHT22;25777;47.824;18.982;2023-03-20T00:08:18;5.50;99.90
40077;DHT22;25777;47.824;18.982;2023-03-20T00:10:48;5.50;99.90
40077;DHT22;25777;47.824;18.982;2023-03-20T00:13:26;5.50;99.90
40077;DHT22;25777;47.824;18.982;2023-03-20T00:15:57;5.40;99.90
40077;DHT22;25777;47.824;18.982;2023-03-20T00:18:34;5.40;99.90
40077;DHT22;25777;47.824;18.982;2023-03-20T00:21:00;5.40;99.90
40077;DHT22;25777;47.824;18.982;2023-03-20T00:23:28;5.30;99.90
40077;DHT22;25777;47.824;18.982;2023-03-20T00:25:55;5.10;99.90
40077;DHT22;25777;47.824;18.982;2023-03-20T00:28:45;5.10;99.90
40077;DHT22;25777;47.824;18.982;2023-03-20T00:31:30;5.10;99.90
40077;DHT22;25777;47.824;18.982;2023-03-20T00:34:02;5.10;99.90
40077;DHT22;25777;47.824;18.982;2023-03-20T00:36:32;5.10;99.90
40077;DHT22;25777;47.824;18.982;2023-03-20T00:39:02;5.00;99.90
40077;DHT22;25777;47.824;18.982;2023-03-20T00:47:16;5.20;99.90
40077;DHT22;25777;47.824;18.982;2023-03-20T00:49:49;5.20;99.90
40077;DHT22;25777;47.824;18.982;2023-03-20T00:52:30;5.10;99.90
40077;DHT22;25777;47.824;18.982;2023-03-20T00:55:00;5.10;99.90
40077;DHT22;25777;47.824;18.982;2023-03-20T00:57:29;5.20;99.90
40077;DHT22;25777;47.824;18.982;2023-03-20T01:00:03;5.30;99.90
40077;DHT22;25777;47.824;18.982;2023-03-20T01:02:30;5.30;99.90
40077;DHT22;25777;47.824;18.982;2023-03-20T01:04:58;5.30;99.90
40077;DHT22;25777;47.824;18.982;2023-03-20T01:07:30;5.30;99.90
40077;DHT22;25777;47.824;18.982;2023-03-20T01:10:01;5.10;99.90
40077;DHT22;25777;47.824;18.982;2023-03-20T01:12:32;5.00;99.90
40077;DHT22;25777;47.824;18.982;2023-03-20T01:15:00;4.90;99.90
40077;DHT22;25777;47.824;18.982;2023-03-20T01:17:29;4.90;99.90
40077;DHT22;25777;47.824;18.982;2023-03-20T01:19:56;5.00;99.90
40077;DHT22;25777;47.824;18.982;2023-03-20T01:22:22;5.00;99.90
40077;DHT22;25777;47.824;18.982;2023-03-20T01:24:49;4.90;99.90
40077;DHT22;25777;47.824;18.982;2023-03-20T01:27:18;5.00;99.90
40077;DHT22;25777;47.824;18.982;2023-03-20T01:29:54;5.00;99.90
40077;DHT22;25777;47.824;18.982;2023-03-20T01:32:21;4.80;99.90
40077;DHT22;25777;47.824;18.982;2023-03-20T01:34:51;4.70;99.90
40077;DHT22;25777;47.824;18.982;2023-03-20T01:37:26;4.70;99.90
40077;DHT22;25777;47.824;18.982;2023-03-20T01:39:56;4.60;99.90
40077;DHT22;25777;47.824;18.982;2023-03-20T01:42:24;4.60;99.90
40077;DHT22;25777;47.824;18.982;2023-03-20T01:44:56;4.50;99.90
40077;DHT22;25777;47.824;18.982;2023-03-20T01:47:24;4.50;99.90
40077;DHT22;25777;47.824;18.982;2023-03-20T01:50:31;4.50;99.90
40077;DHT22;25777;47.824;18.982;2023-03-20T01:53:09;4.60;99.90
40077;DHT22;25777;47.824;18.982;2023-03-20T01:55:49;4.50;99.90
40077;DHT22;25777;47.824;18.982;2023-03-20T01:58:20;4.50;99.90
40077;DHT22;25777;47.824;18.982;2023-03-20T02:00:49;4.50;99.90
40077;DHT22;25777;47.824;18.982;2023-03-20T02:03:18;4.20;99.90
40077;DHT22;25777;47.824;18.982;2023-03-20T02:05:45;4.20;99.90
40077;DHT22;25777;47.824;18.982;2023-03-20T02:08:19;4.20;99.90
40077;DHT22;25777;47.824;18.982;2023-03-20T02:10:48;4.20;99.90
40077;DHT22;25777;47.824;18.982;2023-03-20T02:13:15;4.10;99.90
40077;DHT22;25777;47.824;18.982;2023-03-20T02:16:02;4.00;99.90
40077;DHT22;25777;47.824;18.982;2023-03-20T02:18:31;3.80;99.90
40077;DHT22;25777;47.824;18.982;2023-03-20T02:24:50;3.90;99.90
40077;DHT22;25777;47.824;18.982;2023-03-20T02:33:23;3.60;99.90
40077;DHT22;25777;47.824;18.982;2023-03-20T02:36:07;3.70;99.90
40077;DHT22;25777;47.824;18.982;2023-03-20T02:38:49;3.80;99.90
40077;DHT22;25777;47.824;18.982;2023-03-20T02:41:43;3.80;99.90
40077;DHT22;25777;47.824;18.982;2023-03-20T02:44:25;3.70;99.90
40077;DHT22;25777;47.824;18.982;2023-03-20T02:47:03;3.90;99.90
40077;DHT22;25777;47.824;18.982;2023-03-20T02:49:53;3.70;99.90
40077;DHT22;25777;47.824;18.982;2023-03-20T02:55:56;3.60;99.90
40077;DHT22;25777;47.824;18.982;2023-03-20T02:58:42;3.50;99.90
40077;DHT22;25777;47.824;18.982;2023-03-20T03:01:18;3.40;99.90
40077;DHT22;25777;47.824;18.982;2023-03-20T03:03:55;3.40;99.90
40077;DHT22;25777;47.824;18.982;2023-03-20T03:06:36;3.30;99.90
40077;DHT22;25777;47.824;18.982;2023-03-20T03:09:22;3.10;99.90
40077;DHT22;25777;47.824;18.982;2023-03-20T03:12:08;3.10;99.90
40077;DHT22;25777;47.824;18.982;2023-03-20T03:14:58;3.10;99.90
40077;DHT22;25777;47.824;18.982;2023-03-20T03:17:33;3.10;99.90
40077;DHT22;25777;47.824;18.982;2023-03-20T03:20:06;3.00;99.90
40077;DHT22;25777;47.824;18.982;2023-03-20T03:22:42;3.00;99.90
40077;DHT22;25777;47.824;18.982;2023-03-20T03:25:11;2.90;99.90
40077;DHT22;25777;47.824;18.982;2023-03-20T03:27:41;2.90;99.90
40077;DHT22;25777;47.824;18.982;2023-03-20T03:30:40;2.80;99.90
40077;DHT22;25777;47.824;18.982;2023-03-20T03:33:27;2.80;99.90
40077;DHT22;25777;47.824;18.982;2023-03-20T03:39:19;2.70;99.90
40077;DHT22;25777;47.824;18.982;2023-03-20T03:44:35;2.70;99.90
40077;DHT22;25777;47.824;18.982;2023-03-20T03:47:11;2.60;99.90
40077;DHT22;25777;47.824;18.982;2023-03-20T03:49:42;2.80;99.90
40077;DHT22;25777;47.824;18.982;2023-03-20T03:52:17;2.90;99.90
40077;DHT22;25777;47.824;18.982;2023-03-20T03:57:15;2.90;99.90
40077;DHT22;25777;47.824;18.982;2023-03-20T03:59:48;2.70;99.90
40077;DHT22;25777;47.824;18.982;2023-03-20T04:02:17;2.70;99.90
40077;DHT22;25777;47.824;18.982;2023-03-20T04:04:53;2.80;99.90
40077;DHT22;25777;47.824;18.982;2023-03-20T04:07:26;2.60;99.90
40077;DHT22;25777;47.824;18.982;2023-03-20T04:10:00;2.60;99.90
40077;DHT22;25777;47.824;18.982;2023-03-20T04:14:57;2.50;99.90
40077;DHT22;25777;47.824;18.982;2023-03-20T04:17:24;2.40;99.90
40077;DHT22;25777;47.824;18.982;2023-03-20T04:19:50;2.50;99.90
40077;DHT22;25777;47.824;18.982;2023-03-20T04:22:17;2.40;99.90
40077;DHT22;25777;47.824;18.982;2023-03-20T04:24:43;2.60;99.90
40077;DHT22;25777;47.824;18.982;2023-03-20T04:27:15;2.50;99.90
40077;DHT22;25777;47.824;18.982;2023-03-20T04:29:42;2.40;99.90
40077;DHT22;25777;47.824;18.982;2023-03-20T04:32:11;2.50;99.90
40077;DHT22;25777;47.824;18.982;2023-03-20T04:34:38;2.50;99.90
40077;DHT22;25777;47.824;18.982;2023-03-20T04:37:05;2.30;99.90
40077;DHT22;25777;47.824;18.982;2023-03-20T04:39:35;2.30;99.90
40077;DHT22;25777;47.824;18.982;2023-03-20T04:42:03;2.30;99.90
40077;DHT22;25777;47.824;18.982;2023-03-20T04:44:34;2.30;99.90
40077;DHT22;25777;47.824;18.982;2023-03-20T04:47:08;2.20;99.90
40077;DHT22;25777;47.824;18.982;2023-03-20T04:49:42;2.30;99.90
40077;DHT22;25777;47.824;18.982;2023-03-20T04:52:10;2.10;99.90
40077;DHT22;25777;47.824;18.982;2023-03-20T04:54:37;2.20;99.90
40077;DHT22;25777;47.824;18.982;2023-03-20T04:57:04;2.10;99.90
40077;DHT22;25777;47.824;18.982;2023-03-20T04:59:47;1.90;99.90
40077;DHT22;25777;47.824;18.982;2023-03-20T05:02:26;2.20;99.90
40077;DHT22;25777;47.824;18.982;2023-03-20T05:04:52;2.10;99.90
40077;DHT22;25777;47.824;18.982;2023-03-20T05:07:23;2.10;99.90
40077;DHT22;25777;47.824;18.982;2023-03-20T05:09:50;2.20;99.90
40077;DHT22;25777;47.824;18.982;2023-03-20T05:12:20;2.30;99.90
40077;DHT22;25777;47.824;18.982;2023-03-20T05:14:48;2.30;99.90
40077;DHT22;25777;47.824;18.982;2023-03-20T05:17:14;2.20;99.90
40077;DHT22;25777;47.824;18.982;2023-03-20T05:19:40;2.20;99.90
40077;DHT22;25777;47.824;18.982;2023-03-20T05:22:07;2.20;99.90
40077;DHT22;25777;47.824;18.982;2023-03-20T05:24:33;2.20;99.90
40077;DHT22;25777;47.824;18.982;2023-03-20T05:27:04;2.30;99.90
40077;DHT22;25777;47.824;18.982;2023-03-20T05:29:33;2.40;99.90
40077;DHT22;25777;47.824;18.982;2023-03-20T05:31:59;2.30;99.90
40077;DHT22;25777;47.824;18.982;2023-03-20T05:34:27;2.40;99.90
40077;DHT22;25777;47.824;18.982;2023-03-20T05:36:53;2.40;99.90
40077;DHT22;25777;47.824;18.982;2023-03-20T05:39:19;2.60;99.90
40077;DHT22;25777;47.824;18.982;2023-03-20T05:41:45;2.60;99.90
40077;DHT22;25777;47.824;18.982;2023-03-20T05:44:12;2.50;99.90
40077;DHT22;25777;47.824;18.982;2023-03-20T05:46:39;2.60;99.90
40077;DHT22;25777;47.824;18.982;2023-03-20T05:49:06;2.70;99.90
40077;DHT22;25777;47.824;18.982;2023-03-20T05:51:32;2.80;99.90
40077;DHT22;25777;47.824;18.982;2023-03-20T05:53:58;2.90;99.90
40077;DHT22;25777;47.824;18.982;2023-03-20T05:56:42;2.90;99.90
40077;DHT22;25777;47.824;18.982;2023-03-20T05:59:09;3.10;99.90
40077;DHT22;25777;47.824;18.982;2023-03-20T06:01:35;3.10;99.90
40077;DHT22;25777;47.824;18.982;2023-03-20T06:04:04;3.20;99.90
40077;DHT22;25777;47.824;18.982;2023-03-20T06:06:31;3.20;99.90
40077;DHT22;25777;47.824;18.982;2023-03-20T06:08:57;3.40;99.90
40077;DHT22;25777;47.824;18.982;2023-03-20T06:11:23;3.70;99.90
40077;DHT22;25777;47.824;18.982;2023-03-20T06:13:49;3.70;99.90
40077;DHT22;25777;47.824;18.982;2023-03-20T06:16:20;3.80;99.90
40077;DHT22;25777;47.824;18.982;2023-03-20T06:18:46;3.90;99.90
40077;DHT22;25777;47.824;18.982;2023-03-20T06:21:14;4.10;99.90
40077;DHT22;25777;47.824;18.982;2023-03-20T06:23:41;4.30;99.90
40077;DHT22;25777;47.824;18.982;2023-03-20T06:26:07;4.50;99.90
40077;DHT22;25777;47.824;18.982;2023-03-20T06:28:34;4.70;99.90
40077;DHT22;25777;47.824;18.982;2023-03-20T06:31:00;4.90;99.90
40077;DHT22;25777;47.824;18.982;2023-03-20T06:33:29;5.10;99.90
40077;DHT22;25777;47.824;18.982;2023-03-20T06:35:55;5.30;99.90
40077;DHT22;25777;47.824;18.982;2023-03-20T06:38:26;5.60;99.90
40077;DHT22;25777;47.824;18.982;2023-03-20T06:40:52;5.80;99.90
40077;DHT22;25777;47.824;18.982;2023-03-20T06:43:18;6.00;99.90
40077;DHT22;25777;47.824;18.982;2023-03-20T06:45:45;6.20;99.90
40077;DHT22;25777;47.824;18.982;2023-03-20T06:48:12;6.50;99.90
40077;DHT22;25777;47.824;18.982;2023-03-20T06:50:39;6.80;99.90
40077;DHT22;25777;47.824;18.982;2023-03-20T06:53:05;7.00;99.90
40077;DHT22;25777;47.824;18.982;2023-03-20T06:55:32;7.30;99.90
40077;DHT22;25777;47.824;18.982;2023-03-20T06:57:58;7.50;99.90
40077;DHT22;25777;47.824;18.982;2023-03-20T07:00:25;7.80;99.90
40077;DHT22;25777;47.824;18.982;2023-03-20T07:02:53;7.90;99.90
40077;DHT22;25777;47.824;18.982;2023-03-20T07:05:22;8.20;99.90
40077;DHT22;25777;47.824;18.982;2023-03-20T07:07:54;8.40;99.40
40077;DHT22;25777;47.824;18.982;2023-03-20T07:10:22;8.80;97.50
40077;DHT22;25777;47.824;18.982;2023-03-20T07:12:57;9.10;97.20
40077;DHT22;25777;47.824;18.982;2023-03-20T07:15:23;9.30;95.80
40077;DHT22;25777;47.824;18.982;2023-03-20T07:17:50;9.50;93.30
40077;DHT22;25777;47.824;18.982;2023-03-20T07:20:26;9.70;93.00
40077;DHT22;25777;47.824;18.982;2023-03-20T07:22:51;9.80;93.50
40077;DHT22;25777;47.824;18.982;2023-03-20T07:25:20;10.00;90.30
40077;DHT22;25777;47.824;18.982;2023-03-20T07:27:48;10.10;89.00
40077;DHT22;25777;47.824;18.982;2023-03-20T07:30:17;10.20;84.70
40077;DHT22;25777;47.824;18.982;2023-03-20T07:32:52;10.30;81.00
40077;DHT22;25777;47.824;18.982;2023-03-20T07:35:18;10.40;81.00
40077;DHT22;25777;47.824;18.982;2023-03-20T07:37:44;10.50;81.60
40077;DHT22;25777;47.824;18.982;2023-03-20T07:40:12;10.50;81.50
40077;DHT22;25777;47.824;18.982;2023-03-20T07:42:43;10.40;82.40
40077;DHT22;25777;47.824;18.982;2023-03-20T07:45:13;10.50;80.90
40077;DHT22;25777;47.824;18.982;2023-03-20T07:47:44;10.60;79.80
40077;DHT22;25777;47.824;18.982;2023-03-20T07:50:17;10.70;80.90
40077;DHT22;25777;47.824;18.982;2023-03-20T07:52:49;10.90;79.10
40077;DHT22;25777;47.824;18.982;2023-03-20T07:55:19;10.90;78.80
40077;DHT22;25777;47.824;18.982;2023-03-20T07:57:46;11.00;78.60
40077;DHT22;25777;47.824;18.982;2023-03-20T08:00:19;11.10;78.20
40077;DHT22;25777;47.824;18.982;2023-03-20T08:02:45;11.20;78.40
40077;DHT22;25777;47.824;18.982;2023-03-20T08:05:18;11.50;77.00
40077;DHT22;25777;47.824;18.982;2023-03-20T08:07:48;11.70;75.60
40077;DHT22;25777;47.824;18.982;2023-03-20T08:10:15;11.80;76.50
40077;DHT22;25777;47.824;18.982;2023-03-20T08:12:43;11.80;76.20
40077;DHT22;25777;47.824;18.982;2023-03-20T08:15:15;11.90;76.50
40077;DHT22;25777;47.824;18.982;2023-03-20T08:17:55;11.90;76.70
40077;DHT22;25777;47.824;18.982;2023-03-20T08:20:31;12.10;76.40
40077;DHT22;25777;47.824;18.982;2023-03-20T08:22:58;12.30;74.70
40077;DHT22;25777;47.824;18.982;2023-03-20T08:25:59;12.40;76.50
40077;DHT22;25777;47.824;18.982;2023-03-20T08:28:26;12.60;75.20
40077;DHT22;25777;47.824;18.982;2023-03-20T08:30:52;12.70;71.50
40077;DHT22;25777;47.824;18.982;2023-03-20T08:33:19;12.70;72.70
40077;DHT22;25777;47.824;18.982;2023-03-20T08:35:57;12.80;72.40
40077;DHT22;25777;47.824;18.982;2023-03-20T08:38:33;13.00;72.60
40077;DHT22;25777;47.824;18.982;2023-03-20T08:41:00;13.10;70.20
40077;DHT22;25777;47.824;18.982;2023-03-20T08:43:26;13.30;67.80
40077;DHT22;25777;47.824;18.982;2023-03-20T08:45:52;13.50;68.60
40077;DHT22;25777;47.824;18.982;2023-03-20T08:48:18;13.70;65.90
40077;DHT22;25777;47.824;18.982;2023-03-20T08:50:44;13.80;64.80
40077;DHT22;25777;47.824;18.982;2023-03-20T08:53:16;13.90;65.30
40077;DHT22;25777;47.824;18.982;2023-03-20T08:55:47;14.00;67.10
40077;DHT22;25777;47.824;18.982;2023-03-20T08:58:13;13.90;64.30
40077;DHT22;25777;47.824;18.982;2023-03-20T09:00:41;13.80;64.40
40077;DHT22;25777;47.824;18.982;2023-03-20T09:03:19;13.80;63.60
40077;DHT22;25777;47.824;18.982;2023-03-20T09:05:51;14.00;66.00
40077;DHT22;25777;47.824;18.982;2023-03-20T09:08:17;14.10;65.10
40077;DHT22;25777;47.824;18.982;2023-03-20T09:10:45;14.20;65.40
40077;DHT22;25777;47.824;18.982;2023-03-20T09:13:11;14.10;63.10
40077;DHT22;25777;47.824;18.982;2023-03-20T09:15:39;14.20;65.90
40077;DHT22;25777;47.824;18.982;2023-03-20T09:18:06;14.40;66.20
40077;DHT22;25777;47.824;18.982;2023-03-20T09:20:39;14.10;63.60
40077;DHT22;25777;47.824;18.982;2023-03-20T09:23:08;14.10;63.20
40077;DHT22;25777;47.824;18.982;2023-03-20T09:25:34;14.10;63.80
40077;DHT22;25777;47.824;18.982;2023-03-20T09:28:00;14.30;63.70
40077;DHT22;25777;47.824;18.982;2023-03-20T09:30:30;14.20;61.70
40077;DHT22;25777;47.824;18.982;2023-03-20T09:33:09;14.10;64.50
40077;DHT22;25777;47.824;18.982;2023-03-20T09:35:52;14.30;64.50
40077;DHT22;25777;47.824;18.982;2023-03-20T09:38:41;14.40;64.10
40077;DHT22;25777;47.824;18.982;2023-03-20T09:41:36;14.40;63.30
40077;DHT22;25777;47.824;18.982;2023-03-20T09:44:09;14.60;65.50
40077;DHT22;25777;47.824;18.982;2023-03-20T09:47:04;14.90;66.30
40077;DHT22;25777;47.824;18.982;2023-03-20T09:52:53;15.40;65.10
40077;DHT22;25777;47.824;18.982;2023-03-20T09:55:47;15.30;63.20
40077;DHT22;25777;47.824;18.982;2023-03-20T09:58:30;15.20;62.40
40077;DHT22;25777;47.824;18.982;2023-03-20T10:01:00;15.30;63.80
40077;DHT22;25777;47.824;18.982;2023-03-20T10:03:54;15.30;62.20
40077;DHT22;25777;47.824;18.982;2023-03-20T10:06:29;15.20;60.20
40077;DHT22;25777;47.824;18.982;2023-03-20T10:09:15;15.30;61.60
40077;DHT22;25777;47.824;18.982;2023-03-20T10:18:08;15.30;63.90
40077;DHT22;25777;47.824;18.982;2023-03-20T10:20:49;15.40;61.90
40077;DHT22;25777;47.824;18.982;2023-03-20T10:23:39;15.80;63.60
40077;DHT22;25777;47.824;18.982;2023-03-20T10:26:12;15.90;60.20
40077;DHT22;25777;47.824;18.982;2023-03-20T10:29:00;16.00;60.70
40077;DHT22;25777;47.824;18.982;2023-03-20T10:37:14;16.30;59.80
40077;DHT22;25777;47.824;18.982;2023-03-20T10:42:44;16.20;56.80
40077;DHT22;25777;47.824;18.982;2023-03-20T10:48:40;16.80;58.10
40077;DHT22;25777;47.824;18.982;2023-03-20T10:51:19;16.90;58.50
40077;DHT22;25777;47.824;18.982;2023-03-20T10:54:02;16.90;58.90
40077;DHT22;25777;47.824;18.982;2023-03-20T10:56:46;16.70;55.20
40077;DHT22;25777;47.824;18.982;2023-03-20T11:02:30;16.60;57.30
40077;DHT22;25777;47.824;18.982;2023-03-20T11:05:01;16.70;57.30
40077;DHT22;25777;47.824;18.982;2023-03-20T11:07:34;16.60;57.80
40077;DHT22;25777;47.824;18.982;2023-03-20T11:10:12;16.40;55.80
40077;DHT22;25777;47.824;18.982;2023-03-20T11:12:48;16.20;56.30
40077;DHT22;25777;47.824;18.982;2023-03-20T11:15:33;16.00;60.20
40077;DHT22;25777;47.824;18.982;2023-03-20T11:18:08;16.00;58.50
40077;DHT22;25777;47.824;18.982;2023-03-20T11:21:01;16.30;58.30
40077;DHT22;25777;47.824;18.982;2023-03-20T11:23:33;16.30;56.90
40077;DHT22;25777;47.824;18.982;2023-03-20T11:26:07;16.30;56.60
40077;DHT22;25777;47.824;18.982;2023-03-20T11:28:55;16.30;58.20
40077;DHT22;25777;47.824;18.982;2023-03-20T11:31:34;16.40;57.20
40077;DHT22;25777;47.824;18.982;2023-03-20T11:39:29;16.80;57.90
40077;DHT22;25777;47.824;18.982;2023-03-20T11:42:29;17.10;57.20
40077;DHT22;25777;47.824;18.982;2023-03-20T11:45:03;16.90;56.40
40077;DHT22;25777;47.824;18.982;2023-03-20T11:47:32;17.00;57.10
40077;DHT22;25777;47.824;18.982;2023-03-20T11:50:03;16.80;57.60
40077;DHT22;25777;47.824;18.982;2023-03-20T11:52:36;17.30;59.40
40077;DHT22;25777;47.824;18.982;2023-03-20T11:55:25;17.20;55.50
40077;DHT22;25777;47.824;18.982;2023-03-20T11:58:22;16.90;56.60
40077;DHT22;25777;47.824;18.982;2023-03-20T12:00:59;17.20;56.00
40077;DHT22;25777;47.824;18.982;2023-03-20T12:06:24;17.50;57.90
40077;DHT22;25777;47.824;18.982;2023-03-20T12:09:00;17.30;56.60
40077;DHT22;25777;47.824;18.982;2023-03-20T12:15:21;17.30;56.70
40077;DHT22;25777;47.824;18.982;2023-03-20T12:18:10;17.00;57.10
40077;DHT22;25777;47.824;18.982;2023-03-20T12:21:05;17.10;56.90
40077;DHT22;25777;47.824;18.982;2023-03-20T12:26:35;17.30;56.30
40077;DHT22;25777;47.824;18.982;2023-03-20T12:31:43;17.00;56.80
40077;DHT22;25777;47.824;18.982;2023-03-20T12:34:36;17.00;56.60
40077;DHT22;25777;47.824;18.982;2023-03-20T12:37:03;17.20;58.10
40077;DHT22;25777;47.824;18.982;2023-03-20T12:39:35;17.30;57.10
40077;DHT22;25777;47.824;18.982;2023-03-20T12:51:02;17.50;55.50
40077;DHT22;25777;47.824;18.982;2023-03-20T12:53:50;17.30;55.70
40077;DHT22;25777;47.824;18.982;2023-03-20T13:01:31;17.70;55.70
40077;DHT22;25777;47.824;18.982;2023-03-20T13:06:57;17.70;55.60
40077;DHT22;25777;47.824;18.982;2023-03-20T13:13:06;18.00;55.70
40077;DHT22;25777;47.824;18.982;2023-03-20T13:16:12;18.00;56.40
40077;DHT22;25777;47.824;18.982;2023-03-20T13:18:52;18.10;57.40
40077;DHT22;25777;47.824;18.982;2023-03-20T13:21:50;18.00;55.50
40077;DHT22;25777;47.824;18.982;2023-03-20T13:37:50;18.40;56.70
40077;DHT22;25777;47.824;18.982;2023-03-20T13:40:26;18.60;55.70
40077;DHT22;25777;47.824;18.982;2023-03-20T13:43:24;18.40;56.10
40077;DHT22;25777;47.824;18.982;2023-03-20T13:46:08;18.10;56.10
40077;DHT22;25777;47.824;18.982;2023-03-20T13:48:40;18.20;56.90
40077;DHT22;25777;47.824;18.982;2023-03-20T13:54:06;19.00;56.20
40077;DHT22;25777;47.824;18.982;2023-03-20T14:05:08;18.40;56.30
40077;DHT22;25777;47.824;18.982;2023-03-20T14:07:41;17.90;57.30
40077;DHT22;25777;47.824;18.982;2023-03-20T14:13:14;17.90;58.50
40077;DHT22;25777;47.824;18.982;2023-03-20T14:15:54;18.30;57.80
40077;DHT22;25777;47.824;18.982;2023-03-20T14:18:25;18.50;56.80
40077;DHT22;25777;47.824;18.982;2023-03-20T14:21:03;18.70;57.00
40077;DHT22;25777;47.824;18.982;2023-03-20T14:23:40;19.00;57.60
40077;DHT22;25777;47.824;18.982;2023-03-20T14:26:36;18.90;57.10
40077;DHT22;25777;47.824;18.982;2023-03-20T14:31:35;18.80;57.00
40077;DHT22;25777;47.824;18.982;2023-03-20T14:34:25;18.90;56.70
40077;DHT22;25777;47.824;18.982;2023-03-20T14:37:03;18.60;56.10
40077;DHT22;25777;47.824;18.982;2023-03-20T14:39:48;18.20;57.00
40077;DHT22;25777;47.824;18.982;2023-03-20T14:47:59;17.70;59.50
40077;DHT22;25777;47.824;18.982;2023-03-20T14:53:24;17.40;59.70
40077;DHT22;25777;47.824;18.982;2023-03-20T15:03:55;17.40;60.90
40077;DHT22;25777;47.824;18.982;2023-03-20T15:06:25;17.30;60.80
40077;DHT22;25777;47.824;18.982;2023-03-20T15:09:03;17.20;61.00
40077;DHT22;25777;47.824;18.982;2023-03-20T15:11:32;17.00;62.70
40077;DHT22;25777;47.824;18.982;2023-03-20T15:14:08;17.00;61.40
40077;DHT22;25777;47.824;18.982;2023-03-20T15:16:36;17.00;60.00
40077;DHT22;25777;47.824;18.982;2023-03-20T15:19:14;17.10;59.90
40077;DHT22;25777;47.824;18.982;2023-03-20T15:21:44;17.10;60.40
40077;DHT22;25777;47.824;18.982;2023-03-20T15:24:31;17.00;61.40
40077;DHT22;25777;47.824;18.982;2023-03-20T15:27:00;16.90;61.60
40077;DHT22;25777;47.824;18.982;2023-03-20T15:29:28;16.80;62.20
40077;DHT22;25777;47.824;18.982;2023-03-20T15:31:58;16.80;63.20
40077;DHT22;25777;47.824;18.982;2023-03-20T15:34:33;16.70;64.40
40077;DHT22;25777;47.824;18.982;2023-03-20T15:37:01;16.80;62.80
40077;DHT22;25777;47.824;18.982;2023-03-20T15:39:29;16.90;61.80
40077;DHT22;25777;47.824;18.982;2023-03-20T15:42:10;16.80;62.70
40077;DHT22;25777;47.824;18.982;2023-03-20T15:44:40;16.80;61.90
40077;DHT22;25777;47.824;18.982;2023-03-20T15:47:18;16.70;62.70
40077;DHT22;25777;47.824;18.982;2023-03-20T15:55:03;16.20;64.10
40077;DHT22;25777;47.824;18.982;2023-03-20T16:00:29;16.40;63.10
40077;DHT22;25777;47.824;18.982;2023-03-20T16:03:00;16.40;63.70
40077;DHT22;25777;47.824;18.982;2023-03-20T16:05:28;16.20;64.20
40077;DHT22;25777;47.824;18.982;2023-03-20T16:07:55;16.20;64.60
40077;DHT22;25777;47.824;18.982;2023-03-20T16:10:29;16.10;64.80
40077;DHT22;25777;47.824;18.982;2023-03-20T16:12:56;15.90;65.30
40077;DHT22;25777;47.824;18.982;2023-03-20T16:15:31;16.00;64.50
40077;DHT22;25777;47.824;18.982;2023-03-20T16:18:01;15.90;65.00
40077;DHT22;25777;47.824;18.982;2023-03-20T16:20:37;16.00;64.50
40077;DHT22;25777;47.824;18.982;2023-03-20T16:23:08;16.00;64.30
40077;DHT22;25777;47.824;18.982;2023-03-20T16:25:38;15.90;65.10
40077;DHT22;25777;47.824;18.982;2023-03-20T16:28:04;15.90;64.70
40077;DHT22;25777;47.824;18.982;2023-03-20T16:30:42;15.80;65.10
40077;DHT22;25777;47.824;18.982;2023-03-20T16:33:13;15.60;65.90
40077;DHT22;25777;47.824;18.982;2023-03-20T16:35:49;15.70;64.80
40077;DHT22;25777;47.824;18.982;2023-03-20T16:38:28;15.60;65.50
40077;DHT22;25777;47.824;18.982;2023-03-20T16:43:58;15.40;66.30
40077;DHT22;25777;47.824;18.982;2023-03-20T16:46:28;15.50;66.50
40077;DHT22;25777;47.824;18.982;2023-03-20T16:51:59;15.30;67.30
40077;DHT22;25777;47.824;18.982;2023-03-20T16:54:35;15.40;67.00
40077;DHT22;25777;47.824;18.982;2023-03-20T16:57:07;15.40;66.60
40077;DHT22;25777;47.824;18.982;2023-03-20T16:59:38;15.40;67.20
40077;DHT22;25777;47.824;18.982;2023-03-20T17:02:31;15.20;68.10
40077;DHT22;25777;47.824;18.982;2023-03-20T17:05:05;14.90;69.50
40077;DHT22;25777;47.824;18.982;2023-03-20T17:07:33;14.80;68.80
40077;DHT22;25777;47.824;18.982;2023-03-20T17:12:45;14.40;71.00
40077;DHT22;25777;47.824;18.982;2023-03-20T17:15:17;14.20;72.20
40077;DHT22;25777;47.824;18.982;2023-03-20T17:17:43;14.00;72.80
40077;DHT22;25777;47.824;18.982;2023-03-20T17:20:26;13.90;73.70
40077;DHT22;25777;47.824;18.982;2023-03-20T17:22:53;13.60;75.50
40077;DHT22;25777;47.824;18.982;2023-03-20T17:25:26;13.30;76.50
40077;DHT22;25777;47.824;18.982;2023-03-20T17:27:52;13.10;77.30
40077;DHT22;25777;47.824;18.982;2023-03-20T17:30:22;12.80;78.80
40077;DHT22;25777;47.824;18.982;2023-03-20T17:32:53;12.70;79.10
40077;DHT22;25777;47.824;18.982;2023-03-20T17:35:20;12.60;79.70
40077;DHT22;25777;47.824;18.982;2023-03-20T17:37:47;12.40;80.90
40077;DHT22;25777;47.824;18.982;2023-03-20T17:40:20;12.10;81.90
40077;DHT22;25777;47.824;18.982;2023-03-20T17:42:47;12.00;82.60
40077;DHT22;25777;47.824;18.982;2023-03-20T17:45:15;11.80;83.30
40077;DHT22;25777;47.824;18.982;2023-03-20T17:47:44;11.70;83.80
40077;DHT22;25777;47.824;18.982;2023-03-20T17:50:18;11.60;84.60
40077;DHT22;25777;47.824;18.982;2023-03-20T17:52:45;11.40;85.90
40077;DHT22;25777;47.824;18.982;2023-03-20T17:55:36;11.20;86.50
40077;DHT22;25777;47.824;18.982;2023-03-20T17:58:02;11.20;87.20
40077;DHT22;25777;47.824;18.982;2023-03-20T18:00:28;11.00;87.70
40077;DHT22;25777;47.824;18.982;2023-03-20T18:03:03;10.90;88.60
40077;DHT22;25777;47.824;18.982;2023-03-20T18:05:29;10.90;88.80
40077;DHT22;25777;47.824;18.982;2023-03-20T18:08:16;10.90;88.70
40077;DHT22;25777;47.824;18.982;2023-03-20T18:10:52;10.80;89.00
40077;DHT22;25777;47.824;18.982;2023-03-20T18:13:21;10.70;89.70
40077;DHT22;25777;47.824;18.982;2023-03-20T18:15:49;10.50;90.30
40077;DHT22;25777;47.824;18.982;2023-03-20T18:18:16;10.30;91.00
40077;DHT22;25777;47.824;18.982;2023-03-20T18:20:44;10.30;91.10
40077;DHT22;25777;47.824;18.982;2023-03-20T18:23:27;10.20;91.60
40077;DHT22;25777;47.824;18.982;2023-03-20T18:25:59;10.10;92.00
40077;DHT22;25777;47.824;18.982;2023-03-20T18:28:38;9.90;92.50
40077;DHT22;25777;47.824;18.982;2023-03-20T18:31:05;9.90;92.90
40077;DHT22;25777;47.824;18.982;2023-03-20T18:33:38;9.80;93.10
40077;DHT22;25777;47.824;18.982;2023-03-20T18:36:04;9.70;93.40